»·PEaware :: C-FRVF KDAG-KCNO

C-FRVF :: KDAG-KCNO

FLIGHT INFORMATION

Flight Status: Arrived
Operator: Privately registered:
Canada
More flights under this callsign
Pilot: Scott G. (88)
Aircraft: PIPER PA-31/31P NAVAJO CHIEFTAIN
(PA31)
More flights by this aircraft type
Origin: KDAG Barstow-Daggett
United States
Destination: KCNO Chino
United States
More flights between these airports :: More routes between these airports
Route: +PDZ
File this flight plan on PilotEdge
Remarks:
Altitude:
(Current/Filed)
10,500ft
Speed:
(Current/Filed)
180kts
Departed: 13-Sep-18 10:08 AM
Arrived: 13-Sep-18 10:53 AM
Distance/Time
Traveled:
67nm/0:45
Distance/Time
To Go:
Arrived

Flight Plot

Page will automatically refresh every two minutes.

Flight plan parsing failed; only flown route is shown


Map Options




Map Legend


Flown Route
Filed Route
Departure Airport
Arrival Airport
Navaid (VOR, NDB)
Fix

Horizontal Profiles

Position Reports

Time Latitude Longitude Heading Altitude Ground
Speed
13-Sep-18 09:43 34.856940 -116.790730 267 1929ft 0kts
13-Sep-18 09:44 34.856940 -116.790730 267 1929ft 0kts
13-Sep-18 09:45 34.856940 -116.790730 267 1929ft 0kts
13-Sep-18 09:46 34.856940 -116.790730 267 1929ft 0kts
13-Sep-18 09:47 34.856940 -116.790730 267 1929ft 0kts
13-Sep-18 09:48 34.856940 -116.790730 267 1929ft 0kts
13-Sep-18 09:49 34.856940 -116.790730 267 1929ft 0kts
13-Sep-18 09:50 34.856940 -116.790730 267 1929ft 0kts
13-Sep-18 09:51 34.856940 -116.790730 267 1929ft 0kts
13-Sep-18 09:52 34.856940 -116.790730 267 1929ft 0kts
13-Sep-18 09:53 34.856940 -116.790730 267 1929ft 0kts
13-Sep-18 09:54 34.856940 -116.790730 267 1929ft 0kts
13-Sep-18 09:55 34.856940 -116.790730 267 1929ft 0kts
13-Sep-18 09:56 34.856940 -116.790730 267 1929ft 0kts
13-Sep-18 09:57 34.856940 -116.790747 267 1929ft 0kts
13-Sep-18 09:58 34.854894 -116.790976 161 1929ft 8kts
13-Sep-18 09:59 34.852722 -116.788899 142 1929ft 13kts
13-Sep-18 10:00 34.852573 -116.782915 93 1929ft 20kts
13-Sep-18 10:01 34.852579 -116.776626 106 1929ft 1kts
13-Sep-18 10:02 34.852538 -116.776597 165 1929ft 0kts
13-Sep-18 10:03 34.852538 -116.776597 165 1929ft 0kts
13-Sep-18 10:04 34.852539 -116.776597 165 1929ft 0kts
13-Sep-18 10:05 34.852539 -116.776597 165 1929ft 0kts
13-Sep-18 10:06 34.852539 -116.776597 165 1929ft 0kts
13-Sep-18 10:07 34.852539 -116.776597 165 1929ft 0kts
13-Sep-18 10:08 34.852539 -116.776597 165 1929ft 0kts
13-Sep-18 10:09 34.851489 -116.776646 238 1929ft 12kts
13-Sep-18 10:10 34.851491 -116.780180 270 1929ft 77kts
13-Sep-18 10:11 34.854884 -116.816392 280 3265ft 115kts
13-Sep-18 10:12 34.882171 -116.830101 33 4652ft 134kts
13-Sep-18 10:13 34.880981 -116.786041 103 6133ft 135kts
13-Sep-18 10:14 34.872614 -116.739910 103 7800ft 144kts
13-Sep-18 10:15 34.864779 -116.692345 103 9508ft 143kts
13-Sep-18 10:16 34.859194 -116.654584 103 10808ft 141kts
13-Sep-18 10:17 34.852939 -116.607411 103 12087ft 163kts
13-Sep-18 10:18 34.843639 -116.542726 103 12036ft 209kts
13-Sep-18 10:19 34.831515 -116.472537 128 12002ft 210kts
13-Sep-18 10:20 34.790943 -116.493228 232 12034ft 189kts
13-Sep-18 10:21 34.759703 -116.544621 233 12037ft 189kts
13-Sep-18 10:22 34.725636 -116.592834 215 12042ft 189kts
13-Sep-18 10:23 34.682642 -116.630061 216 12049ft 189kts
13-Sep-18 10:24 34.640600 -116.667536 225 12035ft 185kts
13-Sep-18 10:25 34.606328 -116.713828 229 12032ft 184kts
13-Sep-18 10:26 34.573191 -116.760867 214 12020ft 185kts
13-Sep-18 10:27 34.530431 -116.793760 221 12032ft 184kts
13-Sep-18 10:28 34.493132 -116.836249 225 12031ft 183kts
13-Sep-18 10:29 34.457300 -116.879528 225 12031ft 183kts
13-Sep-18 10:30 34.425229 -116.914997 230 12040ft 157kts
13-Sep-18 10:31 34.392899 -116.957254 226 12030ft 177kts
13-Sep-18 10:32 34.358051 -117.000096 226 12026ft 181kts
13-Sep-18 10:33 34.322651 -117.043128 226 12023ft 180kts
13-Sep-18 10:34 34.287427 -117.085828 226 12021ft 179kts
13-Sep-18 10:35 34.238701 -117.097905 191 11534ft 190kts
13-Sep-18 10:36 34.185483 -117.104787 191 10704ft 196kts
13-Sep-18 10:37 34.131662 -117.111649 191 9991ft 190kts
13-Sep-18 10:38 34.078282 -117.118443 191 10003ft 196kts
13-Sep-18 10:39 34.023717 -117.125378 191 9799ft 206kts
13-Sep-18 10:40 33.967195 -117.132666 190 9026ft 193kts
13-Sep-18 10:41 33.922566 -117.136247 187 8372ft 195kts
13-Sep-18 10:42 33.867397 -117.144272 190 6981ft 214kts
13-Sep-18 10:43 33.831393 -117.183875 281 5468ft 194kts
13-Sep-18 10:44 33.869405 -117.219276 310 4277ft 175kts
13-Sep-18 10:45 33.901068 -117.259599 313 4063ft 164kts
13-Sep-18 10:46 33.931411 -117.299890 283 4063ft 162kts
13-Sep-18 10:47 33.942822 -117.351530 283 4060ft 163kts
13-Sep-18 10:48 33.954113 -117.402840 283 4059ft 163kts
13-Sep-18 10:49 33.962676 -117.455395 278 3835ft 152kts
13-Sep-18 10:50 33.970300 -117.494981 290 3353ft 114kts
13-Sep-18 10:51 33.977044 -117.533054 272 2396ft 116kts
13-Sep-18 10:52 33.976077 -117.570465 270 1708ft 108kts
13-Sep-18 10:53 33.976263 -117.604397 270 1181ft 98kts
13-Sep-18 10:54 33.975855 -117.634341 270 657ft 78kts
13-Sep-18 10:55 33.976567 -117.639244 358 653ft 0kts
13-Sep-18 10:56 33.976567 -117.639244 358 653ft 0kts
13-Sep-18 10:57 33.976894 -117.637703 90 653ft 17kts
13-Sep-18 10:58 33.977418 -117.637306 0 653ft 0kts

Navigation Log

Ident Type
Flight plan parsing failed, navigation log unavailable